La Paz, Mexico

8:10 PM MDT on September 03, 2015 (GMT -0600)
Gen Manuel Marquez De Leon | | Change Station
CLOSE
Current Station
Airport
Location: La Paz,
Elevation: 69 ft
Nearby Weather Stations

Elev 69 ft 24.07 °N, 110.36 °W | Updated 25 minutes ago

Scattered Clouds
Scattered Clouds
86 °F
Feels Like 89 °F
N
5
Wind Variable Wind from SSW

Today
High -- | Low -- °F
--% Chance of Precip.
Yesterday
High -- | Low -- °F
Precip. -- in
7:03 AM 7:37 PM
Waning Gibbous, 64% visible
Pressure 29.81 in
Visibility 10.0 miles
Clouds Few 12000 ft
Scattered Clouds 22000 ft
Heat Index 89 °F
Dew Point 68 °F
Humidity 55%
Rainfall 0.00 in
Snow Depth Not available.
UV 0 out of 12
Pollen Not available.
Air Quality Not available.
Flu Activity Not available.
METAR MMLP 040145Z 21004KT 10SM FEW120 SCT220 30/20 A2981 RMK 8/038
Pressure 29.81 in
Visibility 10.0 miles
Clouds Few 12000 ft
Scattered Clouds 22000 ft
Heat Index 89 °F
Dew Point 68 °F
Humidity 55%
Rainfall 0.00 in
Snow Depth Not available.
UV 0 out of 12
Pollen Not available.
Air Quality Not available.
Flu Activity Not available.
METAR MMLP 040145Z 21004KT 10SM FEW120 SCT220 30/20 A2981 RMK 8/038

10-Day Weather Forecast

×

Almanac

Astronomy

Sep. 03, 2015 Rise Set
Actual Time
Civil Twilight
Nautical Twilight
Astronomical Twilight
Moon
Length of Visible Light
Length of Day
Tomorrow will be .
, % of the Moon is Illuminated

Today's Extremes

Country Highs Country Lows

Community

WunderPhotos

Upload Photos

1,852,096 photos uploaded!

WunderBlogs® & News

Nearby

Air Quality

  Air Quality AQ Index Pollutant
Not available.

Snow Depth

Station Depth Elevation

Earthquake Activity

City Distance Mag. Time & Date
Minimum magnitude displayed is 2.5.

Coastal Water Temperatures

Place Temperature

Stations

Nearby Weather Stations

Station Location Temp. Windchill Dew Point Humidity Wind Precip. Elev Updated Type